Time;durP1;ratioP1;P1;durP2;ratioP2;P2;SDS_P1;SDS_P2;PMS_P1;PMS_P2;Temp;Humidity;BMP_temperature;BMP_pressure;BME280_temperature;BME280_humidity;BME280_pressure;Samples;Min_cycle;Max_cycle;Signal;HPM_P1;HPM_P2
2023/03/21 00:01:48;;;;;;;;;7.50;7.00;;;;;10.46;69.39;99975.00;5116712;28;8828;-61
2023/03/21 00:04:16;;;;;;;;;4.00;4.00;;;;;10.46;69.07;99965.19;5116966;28;8816;-61
2023/03/21 00:06:44;;;;;;;;;9.00;7.00;;;;;10.47;69.64;99972.19;5116823;28;8824;-61
2023/03/21 00:09:11;;;;;;;;;7.50;6.75;;;;;10.47;69.20;99958.88;5116619;28;8840;-61
2023/03/21 00:11:39;;;;;;;;;6.00;6.00;;;;;10.48;69.32;99967.72;5116558;28;8824;-61
2023/03/21 00:14:07;;;;;;;;;7.00;6.75;;;;;10.48;68.87;99959.75;5115703;28;8812;-62
2023/03/21 00:16:36;;;;;;;;;3.00;2.00;;;;;10.48;69.31;99957.91;5116760;28;8814;-59
2023/03/21 00:19:06;;;;;;;;;7.00;6.00;;;;;10.49;69.27;99958.78;5116271;28;8851;-59
2023/03/21 00:21:37;;;;;;;;;9.00;9.00;;;;;10.47;69.60;99945.56;5115587;28;8832;-61
2023/03/21 00:24:24;;;;;;;;;6.25;5.50;;;;;10.46;69.42;99941.22;5116138;28;8919;-62
2023/03/21 00:26:52;;;;;;;;;7.50;6.50;;;;;10.45;69.43;99947.50;5116033;28;8835;-62
2023/03/21 00:29:20;;;;;;;;;7.00;7.00;;;;;10.45;69.97;99944.00;5115184;28;8846;-61
2023/03/21 00:31:48;;;;;;;;;9.50;6.50;;;;;10.44;69.80;99951.16;5116432;28;8858;-61
2023/03/21 00:34:16;;;;;;;;;7.00;7.00;;;;;10.45;69.53;99947.50;5116243;28;8821;-62
2023/03/21 00:36:58;;;;;;;;;3.00;3.00;;;;;10.44;69.41;99939.66;5116187;28;8816;-61
2023/03/21 00:39:26;;;;;;;;;9.00;7.50;;;;;10.44;69.44;99940.50;5115589;28;8819;-60
2023/03/21 00:41:54;;;;;;;;;4.00;2.50;;;;;10.45;69.75;99936.00;5116018;28;8846;-62
2023/03/21 00:44:22;;;;;;;;;10.00;9.75;;;;;10.45;70.06;99934.22;5116489;28;8946;-60
2023/03/21 00:46:50;;;;;;;;;7.00;7.00;;;;;10.46;69.40;99938.56;5116209;28;8835;-62
2023/03/21 00:49:33;;;;;;;;;6.75;6.75;;;;;10.47;69.32;99929.59;5115732;28;8840;-61
2023/03/21 00:52:01;;;;;;;;;4.00;3.75;;;;;10.49;69.65;99926.81;5115836;28;9496;-62
2023/03/21 00:54:44;;;;;;;;;4.50;4.50;;;;;10.50;69.71;99917.88;5115793;28;8808;-62
2023/03/21 00:57:12;;;;;;;;;9.00;8.00;;;;;10.50;69.66;99917.88;5115543;28;8819;-61
2023/03/21 00:59:40;;;;;;;;;5.00;4.00;;;;;10.49;69.62;99917.03;5115187;28;8858;-61
2023/03/21 01:02:13;;;;;;;;;11.00;8.25;;;;;10.49;69.28;99914.38;5115701;28;8889;-62
2023/03/21 01:04:41;;;;;;;;;4.50;4.00;;;;;10.49;69.26;99916.19;5115487;28;8838;-60
2023/03/21 01:07:09;;;;;;;;;9.25;7.50;;;;;10.48;69.44;99901.19;5115431;28;8866;-61
2023/03/21 01:09:36;;;;;;;;;7.50;7.50;;;;;10.47;69.39;99905.63;5099203;28;8836;-61
2023/03/21 01:12:04;;;;;;;;;7.50;7.00;;;;;10.47;69.40;99907.47;5115521;28;8815;-61
2023/03/21 01:14:32;;;;;;;;;7.00;6.50;;;;;10.46;69.68;99903.94;5115940;28;9910;-60
2023/03/21 01:17:00;;;;;;;;;6.75;6.50;;;;;10.46;69.92;99901.28;5115844;28;8812;-61
2023/03/21 01:19:29;;;;;;;;;5.00;4.00;;;;;10.45;69.52;99902.25;5116004;28;8847;-62
2023/03/21 01:22:16;;;;;;;;;9.25;7.50;;;;;10.46;69.38;99901.28;5115897;28;8871;-61
2023/03/21 01:24:44;;;;;;;;;2.00;2.00;;;;;10.47;69.86;99902.16;5116317;28;8832;-61
2023/03/21 01:27:24;;;;;;;;;4.00;4.00;;;;;10.47;69.94;99899.50;5115647;28;8847;-60
2023/03/21 01:29:52;;;;;;;;;7.25;6.75;;;;;10.47;69.39;99896.81;5115835;28;8821;-62
2023/03/21 01:32:20;;;;;;;;;4.00;4.00;;;;;10.48;69.89;99887.88;5115646;28;8828;-61
2023/03/21 01:34:47;;;;;;;;;4.00;4.00;;;;;10.50;69.84;99893.91;5115596;28;8820;-59
2023/03/21 01:37:17;;;;;;;;;6.00;6.00;;;;;10.51;69.90;99882.28;5115502;28;8902;-61
2023/03/21 01:39:45;;;;;;;;;7.00;7.00;;;;;10.53;69.39;99893.66;5115606;28;8885;-60
2023/03/21 01:42:13;;;;;;;;;7.00;7.00;;;;;10.56;69.62;99896.09;5115597;28;8824;-60
2023/03/21 01:44:40;;;;;;;;;6.25;6.25;;;;;10.57;69.73;99887.97;5116370;28;8870;-62
2023/03/21 01:47:08;;;;;;;;;6.75;4.00;;;;;10.59;69.80;99891.34;5114950;28;8804;-62
2023/03/21 01:49:39;;;;;;;;;3.00;3.00;;;;;10.60;69.38;99887.72;5115217;28;8835;-60
2023/03/21 01:52:06;;;;;;;;;8.50;7.00;;;;;10.61;69.24;99880.59;5116755;28;8819;-61
2023/03/21 01:54:43;;;;;;;;;8.50;6.25;;;;;10.62;69.81;99884.94;5118254;28;8819;-62
2023/03/21 01:57:11;;;;;;;;;1.00;1.00;;;;;10.62;69.39;99885.78;5118183;28;8819;-61
2023/03/21 01:59:39;;;;;;;;;7.00;6.50;;;;;10.62;69.54;99876.97;5118559;28;8920;-61
2023/03/21 02:02:08;;;;;;;;;6.75;6.25;;;;;10.62;69.26;99875.13;5119131;28;8874;-62
2023/03/21 02:04:36;;;;;;;;;7.25;6.75;;;;;10.63;69.90;99876.81;5118695;28;8903;-62
2023/03/21 02:07:03;;;;;;;;;9.00;6.25;;;;;10.65;69.92;99866.91;5119120;28;8831;-62
2023/03/21 02:09:32;;;;;;;;;7.50;6.75;;;;;10.63;69.39;99855.50;5118150;28;8824;-62
2023/03/21 02:12:00;;;;;;;;;9.00;8.00;;;;;10.66;69.25;99862.41;5119098;28;8816;-59
2023/03/21 02:14:27;;;;;;;;;5.00;4.00;;;;;10.66;69.67;99863.25;5118667;28;8812;-59
2023/03/21 02:16:56;;;;;;;;;8.00;7.25;;;;;10.65;69.77;99866.91;5118433;28;8840;-62
2023/03/21 02:19:23;;;;;;;;;8.50;7.00;;;;;10.63;69.30;99855.50;5118130;28;8832;-62
2023/03/21 02:22:01;;;;;;;;;6.50;6.50;;;;;10.61;69.80;99857.47;5118641;28;8846;-62
2023/03/21 02:24:29;;;;;;;;;3.00;3.00;;;;;10.58;69.58;99857.72;5118491;28;8885;-61
2023/03/21 02:26:57;;;;;;;;;7.50;6.25;;;;;10.57;69.81;99850.72;5117756;28;8916;-61
2023/03/21 02:29:31;;;;;;;;;7.50;7.00;;;;;10.55;69.49;99844.63;5117701;28;8948;-61
2023/03/21 02:31:59;;;;;;;;;12.50;10.00;;;;;10.55;70.06;99846.47;5118034;28;8823;-61
2023/03/21 02:34:42;;;;;;;;;8.00;7.00;;;;;10.53;69.68;99843.06;5118497;28;8828;-62
2023/03/21 02:37:10;;;;;;;;;5.50;5.50;;;;;10.52;69.25;99842.22;5118427;28;8818;-61
2023/03/21 02:39:37;;;;;;;;;7.50;6.50;;;;;10.50;69.62;99833.53;5118482;28;8819;-62
2023/03/21 02:42:06;;;;;;;;;7.50;6.50;;;;;10.52;70.04;99836.03;5118502;28;8850;-61
2023/03/21 02:44:34;;;;;;;;;8.00;6.50;;;;;10.50;69.91;99841.53;5118207;28;8812;-61
2023/03/21 02:47:01;;;;;;;;;8.00;7.00;;;;;10.51;69.86;99839.69;5117959;28;8808;-60
2023/03/21 02:49:33;;;;;;;;;6.75;6.75;;;;;10.49;69.68;99842.50;5118067;28;8836;-59
2023/03/21 02:52:00;;;;;;;;;4.25;3.75;;;;;10.49;70.15;99837.16;5117430;28;8874;-62
2023/03/21 02:54:42;;;;;;;;;8.00;7.50;;;;;10.51;69.74;99834.34;5117075;28;8835;-60
2023/03/21 02:57:15;;;;;;;;;8.50;6.50;;;;;10.52;69.96;99838.72;5117679;28;9854;-59
2023/03/21 02:59:42;;;;;;;;;10.00;8.50;;;;;10.53;69.34;99843.91;5117485;28;8820;-63
2023/03/21 03:02:21;;;;;;;;;9.75;7.00;;;;;10.53;69.65;99838.59;5109618;28;8908;-60
2023/03/21 03:04:49;;;;;;;;;10.50;9.00;;;;;10.54;69.82;99831.47;5116187;28;8826;-62
2023/03/21 03:07:16;;;;;;;;;11.00;7.00;;;;;10.55;69.25;99838.47;5117986;28;8911;-62
2023/03/21 03:09:44;;;;;;;;;9.75;7.50;;;;;10.55;69.49;99836.66;5117682;28;9532;-61
2023/03/21 03:12:11;;;;;;;;;10.50;9.00;;;;;10.55;69.55;99833.97;5117670;28;9488;-58
2023/03/21 03:14:41;;;;;;;;;8.00;8.00;;;;;10.55;70.02;99831.31;5117299;28;8812;-59
2023/03/21 03:17:28;;;;;;;;;8.50;8.50;;;;;10.55;69.72;99830.50;5117146;28;8814;-61
2023/03/21 03:19:56;;;;;;;;;7.00;6.50;;;;;10.55;69.85;99831.31;5117658;28;8901;-59
2023/03/21 03:22:24;;;;;;;;;10.50;8.00;;;;;10.55;69.27;99835.81;5117601;28;8822;-59
2023/03/21 03:24:52;;;;;;;;;12.00;12.00;;;;;10.55;69.63;99825.16;5117767;28;8840;-60
2023/03/21 03:27:21;;;;;;;;;9.75;9.25;;;;;10.55;69.66;99830.50;5117413;28;8836;-58
2023/03/21 03:29:48;;;;;;;;;9.00;8.00;;;;;10.54;69.65;99840.28;5116947;28;8848;-60
2023/03/21 03:32:16;;;;;;;;;9.25;9.00;;;;;10.53;69.85;99827.94;5117005;28;8809;-61
2023/03/21 03:34:43;;;;;;;;;9.25;8.00;;;;;10.53;69.77;99827.09;5117006;28;8824;-60
2023/03/21 03:37:11;;;;;;;;;11.50;9.75;;;;;10.52;70.06;99820.94;5117466;28;9497;-59
2023/03/21 03:39:39;;;;;;;;;9.75;9.50;;;;;10.52;69.79;99823.59;5117178;28;8920;-61
2023/03/21 03:42:07;;;;;;;;;7.50;7.50;;;;;10.52;69.62;99825.41;5117246;28;8816;-61
2023/03/21 03:44:53;;;;;;;;;9.00;8.00;;;;;10.50;69.97;99820.22;5117285;28;8836;-61
2023/03/21 03:47:21;;;;;;;;;10.50;7.00;;;;;10.50;69.60;99819.38;5116788;28;8967;-60
2023/03/21 03:50:01;;;;;;;;;9.00;9.00;;;;;10.48;70.02;99823.97;5117033;28;8959;-60
2023/03/21 03:52:28;;;;;;;;;11.00;9.50;;;;;10.45;70.08;99814.41;5117068;28;8824;-60
2023/03/21 03:54:56;;;;;;;;;11.50;9.25;;;;;10.43;70.01;99816.38;5116690;28;8803;-61
2023/03/21 03:57:23;;;;;;;;;11.25;11.00;;;;;10.42;70.32;99808.50;5116196;28;8839;-61
2023/03/21 03:59:51;;;;;;;;;9.50;9.00;;;;;10.41;70.36;99814.78;5096660;28;8826;-60
2023/03/21 04:02:19;;;;;;;;;11.75;9.75;;;;;10.40;70.62;99821.09;5103703;28;8828;-62
2023/03/21 04:04:51;;;;;;;;;10.50;9.00;;;;;10.38;70.24;99813.22;5116684;28;9549;-59
2023/03/21 04:07:20;;;;;;;;;9.25;8.00;;;;;10.37;70.61;99811.53;5116367;28;8961;-59
2023/03/21 04:09:47;;;;;;;;;10.50;10.50;;;;;10.38;70.02;99804.38;5116473;28;8815;-60
2023/03/21 04:12:15;;;;;;;;;12.00;12.00;;;;;10.35;70.13;99804.63;5116102;28;8851;-59
2023/03/21 04:14:43;;;;;;;;;11.75;10.50;;;;;10.30;70.76;99796.16;5115828;28;8820;-61
2023/03/21 04:17:13;;;;;;;;;5.50;5.00;;;;;10.21;70.67;99800.44;5116242;28;8831;-59
2023/03/21 04:19:41;;;;;;;;;5.75;5.75;;;;;10.13;70.83;99794.88;5115867;28;8847;-60
2023/03/21 04:22:09;;;;;;;;;9.25;9.25;;;;;10.05;71.16;99793.78;5115900;28;8804;-58
2023/03/21 04:24:38;;;;;;;;;10.50;6.25;;;;;9.98;71.58;99788.09;5116101;28;8816;-60
2023/03/21 04:27:06;;;;;;;;;9.25;8.00;;;;;9.93;70.84;99786.78;5116388;28;8843;-60
2023/03/21 04:29:33;;;;;;;;;9.00;7.00;;;;;9.90;71.28;99793.19;5115583;28;9722;-59
2023/03/21 04:32:02;;;;;;;;;6.75;6.75;;;;;9.88;71.83;99787.09;5115048;28;8850;-61
2023/03/21 04:34:29;;;;;;;;;7.00;7.00;;;;;9.87;72.00;99796.06;5115449;28;8812;-62
2023/03/21 04:36:57;;;;;;;;;14.50;11.50;;;;;9.85;71.93;99790.03;5115706;28;8816;-62
2023/03/21 04:39:25;;;;;;;;;6.75;6.25;;;;;9.86;71.83;99793.53;5115953;28;8813;-59
2023/03/21 04:41:52;;;;;;;;;8.00;8.00;;;;;9.86;71.42;99788.22;5115342;28;8843;-61
2023/03/21 04:44:20;;;;;;;;;5.00;5.00;;;;;9.86;71.59;99785.56;5116149;28;8812;-62
2023/03/21 04:46:49;;;;;;;;;9.00;8.00;;;;;9.86;71.81;99783.72;5115448;28;9522;-62
2023/03/21 04:49:17;;;;;;;;;6.50;6.25;;;;;9.86;71.98;99778.41;5115724;28;8844;-62
2023/03/21 04:51:45;;;;;;;;;7.00;7.00;;;;;9.89;71.59;99774.66;5115547;28;8840;-60
2023/03/21 04:54:14;;;;;;;;;6.00;6.00;;;;;9.88;71.05;99780.97;5116013;28;8854;-62
2023/03/21 04:56:41;;;;;;;;;7.00;7.00;;;;;9.87;71.49;99774.78;5115924;28;8822;-61
2023/03/21 04:59:09;;;;;;;;;7.50;7.50;;;;;9.89;71.52;99772.00;5115555;28;8812;-61
2023/03/21 05:01:37;;;;;;;;;4.25;4.25;;;;;9.90;71.30;99771.91;5115197;28;8808;-60
2023/03/21 05:04:04;;;;;;;;;6.00;6.00;;;;;9.91;71.26;99768.25;5115606;28;8839;-61
2023/03/21 05:06:32;;;;;;;;;7.00;6.25;;;;;9.91;71.81;99767.41;5115618;28;8816;-62
2023/03/21 05:09:00;;;;;;;;;12.00;9.25;;;;;9.91;71.69;99768.25;5115398;28;9574;-62
2023/03/21 05:11:29;;;;;;;;;6.75;6.00;;;;;9.90;71.07;99766.59;5114385;28;8834;-62
2023/03/21 05:13:57;;;;;;;;;6.00;6.00;;;;;9.91;71.44;99776.25;5114011;28;8816;-59
2023/03/21 05:16:25;;;;;;;;;10.50;8.25;;;;;9.91;71.71;99770.94;5098013;28;8827;-60
2023/03/21 05:18:54;;;;;;;;;3.00;3.00;;;;;9.92;71.52;99774.41;5115162;28;8828;-61
2023/03/21 05:21:22;;;;;;;;;9.75;7.50;;;;;9.92;71.87;99766.44;5115126;28;8808;-61
2023/03/21 05:23:53;;;;;;;;;12.75;9.75;;;;;9.93;71.84;99762.84;5114894;28;9551;-59
2023/03/21 05:26:21;;;;;;;;;9.25;9.25;;;;;9.92;71.15;99767.28;5115326;28;8914;-61
2023/03/21 05:28:48;;;;;;;;;14.75;14.00;;;;;9.92;71.52;99766.44;5119406;28;8836;-61
2023/03/21 05:31:17;;;;;;;;;10.00;7.00;;;;;9.91;71.67;99765.59;5118981;28;8827;-60
2023/03/21 05:33:45;;;;;;;;;14.50;10.50;;;;;9.92;71.57;99756.66;5118751;28;8833;-61
2023/03/21 05:36:13;;;;;;;;;6.00;6.00;;;;;9.93;71.61;99763.66;5119140;28;8804;-60
2023/03/21 05:38:44;;;;;;;;;9.00;6.33;;;;;9.95;71.61;99760.88;5118412;28;8988;-60
2023/03/21 05:41:12;;;;;;;;;7.50;7.00;;;;;9.96;71.48;99758.09;5107446;28;8819;-61
2023/03/21 05:43:39;;;;;;;;;7.50;7.50;;;;;9.97;71.87;99764.25;5118646;28;8816;-62
2023/03/21 05:46:07;;;;;;;;;11.25;8.75;;;;;9.99;71.38;99757.84;5118525;28;8839;-61
2023/03/21 05:48:35;;;;;;;;;7.00;6.75;;;;;10.03;71.52;99759.31;5118765;28;8907;-60
2023/03/21 05:51:02;;;;;;;;;6.25;6.25;;;;;10.07;71.37;99765.25;5117940;28;8816;-59
2023/03/21 05:53:30;;;;;;;;;11.00;9.50;;;;;10.08;71.23;99759.81;5118482;28;8836;-60
2023/03/21 05:55:58;;;;;;;;;3.50;3.50;;;;;10.11;71.77;99764.88;5118290;28;8820;-59
2023/03/21 05:58:26;;;;;;;;;8.00;6.50;;;;;10.14;71.73;99766.44;5118167;28;8819;-59
2023/03/21 06:00:54;;;;;;;;;8.25;7.50;;;;;10.16;71.42;99770.69;5118523;28;9516;-62
2023/03/21 06:03:21;;;;;;;;;7.00;7.00;;;;;10.19;71.28;99767.78;5118205;28;8812;-61
2023/03/21 06:05:49;;;;;;;;;9.00;7.00;;;;;10.21;71.59;99771.16;5118090;28;8828;-60
2023/03/21 06:08:17;;;;;;;;;9.25;9.00;;;;;10.24;71.55;99772.72;5118047;28;8870;-59
2023/03/21 06:10:44;;;;;;;;;7.00;7.00;;;;;10.27;71.41;99769.81;5117421;28;8826;-59
2023/03/21 06:13:12;;;;;;;;;5.75;4.50;;;;;10.31;70.67;99773.94;5117361;28;8822;-59
2023/03/21 06:15:40;;;;;;;;;6.00;4.50;;;;;10.34;71.11;99771.88;5117217;28;8835;-59
2023/03/21 06:18:08;;;;;;;;;6.50;6.25;;;;;10.37;70.61;99774.25;5115740;28;9668;-62
2023/03/21 06:20:36;;;;;;;;;8.50;8.00;;;;;10.40;70.93;99782.00;5114454;28;8848;-62
2023/03/21 06:23:04;;;;;;;;;3.50;3.50;;;;;10.43;70.88;99772.91;5113636;28;8827;-62
2023/03/21 06:25:32;;;;;;;;;4.00;3.50;;;;;10.46;70.57;99776.16;5113194;28;8836;-59
2023/03/21 06:28:00;;;;;;;;;6.00;6.00;;;;;10.50;70.92;99774.97;5114121;28;8840;-62
2023/03/21 06:30:27;;;;;;;;;6.75;6.00;;;;;10.54;70.39;99771.06;5114190;28;8850;-62
2023/03/21 06:32:55;;;;;;;;;9.00;9.00;;;;;10.60;70.26;99767.03;5114659;28;8974;-61
2023/03/21 06:35:23;;;;;;;;;6.50;6.50;;;;;10.65;70.46;99768.38;5114781;28;8816;-59
2023/03/21 06:37:51;;;;;;;;;6.00;5.50;;;;;10.75;70.36;99768.44;5115054;28;8831;-61
2023/03/21 06:40:19;;;;;;;;;12.00;7.50;;;;;10.84;69.85;99768.53;5113990;28;8855;-62
2023/03/21 06:42:46;;;;;;;;;6.25;6.25;;;;;10.91;69.75;99766.22;5113591;28;8843;-61
2023/03/21 06:45:14;;;;;;;;;8.50;8.50;;;;;10.97;69.49;99763.00;5112941;28;8851;-62
2023/03/21 06:47:42;;;;;;;;;5.00;4.50;;;;;11.03;69.44;99766.03;5113702;28;8840;-61
2023/03/21 06:50:10;;;;;;;;;8.00;6.00;;;;;11.08;69.51;99762.97;5113749;28;8874;-61
2023/03/21 06:52:38;;;;;;;;;5.50;3.50;;;;;11.10;69.41;99759.19;5114157;28;8908;-61
2023/03/21 06:55:06;;;;;;;;;7.75;6.75;;;;;11.14;69.47;99765.94;5113648;28;8858;-61
2023/03/21 06:57:33;;;;;;;;;3.00;3.00;;;;;11.16;69.49;99760.50;5113067;28;8958;-60
2023/03/21 07:00:04;;;;;;;;;7.50;7.50;;;;;11.17;69.68;99765.72;5112774;28;8962;-60
2023/03/21 07:02:32;;;;;;;;;6.00;4.00;;;;;11.16;69.35;99764.00;5112865;28;8851;-61
2023/03/21 07:05:00;;;;;;;;;3.00;3.00;;;;;11.17;69.45;99762.19;5113236;28;8812;-62
2023/03/21 07:07:28;;;;;;;;;8.00;7.00;;;;;11.16;69.70;99764.00;5113558;28;8827;-61
2023/03/21 07:09:56;;;;;;;;;8.00;7.00;;;;;11.15;69.91;99770.28;5113711;28;8840;-59
2023/03/21 07:12:24;;;;;;;;;8.50;8.50;;;;;11.13;69.65;99772.25;5114231;28;8836;-61
2023/03/21 07:14:52;;;;;;;;;7.00;7.00;;;;;11.12;70.16;99761.72;5115179;28;8855;-61
2023/03/21 07:17:19;;;;;;;;;7.00;6.00;;;;;11.12;70.15;99762.56;5114848;28;8830;-62
2023/03/21 07:19:47;;;;;;;;;8.25;7.00;;;;;11.12;70.37;99769.72;5114528;28;8852;-59
2023/03/21 07:22:15;;;;;;;;;5.50;3.75;;;;;11.10;69.49;99764.53;5114372;28;8863;-60
2023/03/21 07:24:43;;;;;;;;;5.00;3.50;;;;;11.09;70.33;99777.97;5113686;28;8866;-61
2023/03/21 07:27:15;;;;;;;;;2.00;1.00;;;;;11.05;69.87;99772.06;5113401;28;8831;-60
2023/03/21 07:29:43;;;;;;;;;10.25;9.00;;;;;11.01;70.29;99775.94;5112953;28;8873;-61
2023/03/21 07:32:11;;;;;;;;;5.00;4.00;;;;;10.96;70.44;99778.16;5111878;28;8848;-60
2023/03/21 07:34:39;;;;;;;;;6.25;6.00;;;;;10.87;70.95;99773.63;5113247;28;8851;-61
2023/03/21 07:37:07;;;;;;;;;6.75;6.75;;;;;10.79;71.42;99770.75;5114143;28;8860;-61
2023/03/21 07:39:35;;;;;;;;;6.50;4.50;;;;;10.73;71.37;99779.25;5113358;28;8852;-61
2023/03/21 07:42:03;;;;;;;;;3.00;3.00;;;;;10.64;71.79;99766.69;5113578;28;8905;-60
2023/03/21 07:44:32;;;;;;;;;8.50;7.00;;;;;10.59;71.81;99774.19;5114609;28;8847;-60
2023/03/21 07:47:00;;;;;;;;;5.50;5.00;;;;;10.55;72.38;99774.59;5113058;28;8840;-59
2023/03/21 07:49:28;;;;;;;;;1.50;1.50;;;;;10.53;72.36;99772.03;5112327;28;8998;-61
2023/03/21 07:51:56;;;;;;;;;8.00;8.00;;;;;10.52;72.45;99777.47;5113617;28;8901;-62
2023/03/21 07:54:24;;;;;;;;;4.00;4.00;;;;;10.50;72.05;99769.63;5113995;28;8820;-59
2023/03/21 07:56:52;;;;;;;;;6.00;6.00;;;;;10.47;72.54;99780.53;5113893;28;8936;-58
2023/03/21 07:59:20;;;;;;;;;5.00;5.00;;;;;10.39;72.72;99782.13;5114376;28;8873;-59
2023/03/21 08:01:47;;;;;;;;;5.00;4.50;;;;;10.33;72.61;99783.47;5114713;28;9501;-60
2023/03/21 08:04:15;;;;;;;;;7.00;6.00;;;;;10.29;73.07;99792.69;5113687;28;8864;-60
2023/03/21 08:06:43;;;;;;;;;6.50;6.00;;;;;10.26;73.41;99782.25;5113898;28;8840;-59
2023/03/21 08:09:11;;;;;;;;;6.00;6.00;;;;;10.23;73.07;99787.84;5113452;28;8823;-61
2023/03/21 08:11:39;;;;;;;;;7.50;6.50;;;;;10.20;73.65;99797.88;5113655;28;8828;-61
2023/03/21 08:14:07;;;;;;;;;9.25;9.00;;;;;10.17;73.63;99792.81;5112798;28;8857;-59
2023/03/21 08:16:35;;;;;;;;;5.50;5.50;;;;;10.16;73.92;99791.13;5112711;28;8856;-61
2023/03/21 08:19:03;;;;;;;;;2.00;2.00;;;;;10.18;74.35;99794.50;5113395;28;8937;-59
2023/03/21 08:21:30;;;;;;;;;5.00;5.00;;;;;10.24;74.00;99800.16;5110587;28;8843;-59
2023/03/21 08:23:58;;;;;;;;;5.00;3.75;;;;;10.29;73.85;99787.34;5111476;28;8933;-60
2023/03/21 08:26:26;;;;;;;;;9.00;9.00;;;;;10.34;73.69;99785.19;5112001;28;8839;-60
2023/03/21 08:28:54;;;;;;;;;7.00;4.50;;;;;10.40;73.80;99805.13;5111272;28;8861;-61
2023/03/21 08:31:22;;;;;;;;;9.25;7.00;;;;;10.46;73.74;99796.63;5111724;28;8946;-61
2023/03/21 08:33:53;;;;;;;;;7.50;7.00;;;;;10.52;73.98;99793.44;5112161;28;8916;-60
2023/03/21 08:36:21;;;;;;;;;6.50;6.25;;;;;10.56;73.50;99794.91;5113225;28;8916;-61
2023/03/21 08:38:53;;;;;;;;;6.75;6.75;;;;;10.59;73.99;99798.16;5112641;28;8839;-60
2023/03/21 08:41:23;;;;;;;;;5.75;4.50;;;;;10.60;73.84;99802.50;5112909;28;8835;-61
2023/03/21 08:43:51;;;;;;;;;8.50;6.75;;;;;10.62;73.42;99789.91;5112882;28;8854;-59
2023/03/21 08:46:18;;;;;;;;;6.50;3.75;;;;;10.62;73.77;99794.41;5113723;28;9548;-61
2023/03/21 08:48:46;;;;;;;;;6.75;6.50;;;;;10.62;74.06;99799.72;5113986;28;8839;-60
2023/03/21 08:51:14;;;;;;;;;9.50;7.75;;;;;10.55;74.03;99804.69;5112909;28;8847;-60
2023/03/21 08:53:43;;;;;;;;;15.50;11.00;;;;;10.50;74.49;99796.25;5113498;28;8913;-60
2023/03/21 08:56:11;;;;;;;;;10.00;9.00;;;;;10.48;74.02;99792.03;5114838;28;8854;-60
2023/03/21 08:58:40;;;;;;;;;7.00;6.50;;;;;10.48;74.39;99786.69;5112614;28;8887;-59
2023/03/21 09:01:14;;;;;;;;;10.00;9.25;;;;;10.52;74.36;99782.81;5114413;28;8838;-60
2023/03/21 09:03:42;;;;;;;;;6.25;4.50;;;;;10.60;74.52;99788.34;5117571;28;8840;-60
2023/03/21 09:06:12;;;;;;;;;7.00;6.75;;;;;10.63;74.33;99780.13;5117369;28;8830;-59
2023/03/21 09:08:40;;;;;;;;;3.50;3.25;;;;;10.69;74.26;99774.28;5116717;28;8919;-59
2023/03/21 09:11:10;;;;;;;;;6.00;6.00;;;;;10.69;74.79;99777.78;5115706;28;8846;-61
2023/03/21 09:13:37;;;;;;;;;7.50;7.00;;;;;10.68;74.80;99773.44;5116490;28;9540;-59
2023/03/21 09:16:05;;;;;;;;;7.00;6.75;;;;;10.68;75.12;99777.91;5116734;28;8933;-59
2023/03/21 09:21:22;;;;;;;;;9.25;9.00;;;;;10.68;75.00;99768.13;5108310;28;8969;-59
2023/03/21 09:23:51;;;;;;;;;14.00;9.25;;;;;10.65;75.46;99773.69;5116378;28;8828;-59
2023/03/21 09:26:19;;;;;;;;;10.50;10.50;;;;;10.66;75.13;99770.06;5116531;28;9489;-61
2023/03/21 09:28:47;;;;;;;;;7.50;6.50;;;;;10.66;75.76;99775.38;5114843;28;8925;-61
2023/03/21 09:31:20;;;;;;;;;7.00;7.00;;;;;10.62;75.74;99776.59;5116258;28;8847;-59
2023/03/21 09:33:48;;;;;;;;;9.50;9.50;;;;;10.57;76.19;99775.28;5115573;28;8852;-59
2023/03/21 09:36:18;;;;;;;;;10.00;9.50;;;;;10.54;75.78;99771.06;5116057;28;8839;-59
2023/03/21 09:38:45;;;;;;;;;8.50;8.00;;;;;10.55;76.33;99775.41;5115559;28;8839;-60
2023/03/21 09:41:14;;;;;;;;;4.00;3.50;;;;;10.57;76.50;99768.16;5115979;28;9541;-59
2023/03/21 09:43:42;;;;;;;;;9.50;8.00;;;;;10.57;76.64;99772.63;5116352;28;8855;-60
2023/03/21 09:46:11;;;;;;;;;9.75;8.50;;;;;10.58;76.89;99772.50;5116294;28;8947;-59
2023/03/21 09:48:39;;;;;;;;;7.00;6.00;;;;;10.57;76.83;99761.97;5115058;28;8844;-59
2023/03/21 09:51:23;;;;;;;;;9.00;6.75;;;;;10.56;76.46;99769.09;5113492;28;8970;-60
2023/03/21 09:53:51;;;;;;;;;7.00;6.25;;;;;10.56;76.55;99774.44;5113830;28;8828;-61
2023/03/21 09:56:23;;;;;;;;;9.25;9.00;;;;;10.55;77.10;99772.75;5114001;28;9526;-59
2023/03/21 09:58:51;;;;;;;;;6.50;6.00;;;;;10.57;77.26;99765.50;5113871;28;8894;-59
2023/03/21 10:01:27;;;;;;;;;6.75;6.00;;;;;10.59;76.83;99765.34;5113099;28;9520;-59
2023/03/21 10:03:55;;;;;;;;;6.50;6.00;;;;;10.59;77.01;99768.00;5112614;28;8843;-60
2023/03/21 10:06:28;;;;;;;;;7.50;7.50;;;;;10.62;77.16;99765.13;5112961;28;8839;-59
2023/03/21 10:08:56;;;;;;;;;4.00;4.00;;;;;10.63;76.97;99762.31;5113749;28;8975;-60
2023/03/21 10:11:25;;;;;;;;;6.00;6.00;;;;;10.67;77.39;99760.25;5114148;28;9513;-59
2023/03/21 10:13:53;;;;;;;;;0.75;0.75;;;;;10.71;77.02;99759.84;5113538;28;8994;-59
2023/03/21 10:16:21;;;;;;;;;5.75;5.75;;;;;10.71;76.98;99762.50;5114995;28;8870;-61
2023/03/21 10:18:49;;;;;;;;;5.00;5.00;;;;;10.71;77.15;99757.19;5115290;28;8856;-59
2023/03/21 10:21:17;;;;;;;;;7.50;6.75;;;;;10.74;77.26;99759.63;5114901;28;9517;-59
2023/03/21 10:24:05;;;;;;;;;3.50;3.50;;;;;10.76;76.82;99757.66;5114716;28;9509;-60
2023/03/21 10:26:33;;;;;;;;;6.75;6.25;;;;;10.77;77.42;99755.84;5115605;28;8969;-59
2023/03/21 10:29:01;;;;;;;;;4.00;4.00;;;;;10.77;76.84;99758.53;5115527;28;8971;-59
2023/03/21 10:31:30;;;;;;;;;4.50;4.00;;;;;10.77;77.01;99756.69;5115791;28;8865;-59
2023/03/21 10:33:58;;;;;;;;;7.00;6.25;;;;;10.76;77.68;99757.66;5116158;28;9518;-58
2023/03/21 10:36:25;;;;;;;;;2.50;2.50;;;;;10.75;77.45;99752.47;5115240;28;8870;-59
2023/03/21 10:38:54;;;;;;;;;5.00;4.00;;;;;10.76;77.13;99752.34;5114737;28;8838;-58
2023/03/21 10:41:22;;;;;;;;;6.50;6.50;;;;;10.77;77.93;99747.88;5114351;28;8927;-58
2023/03/21 10:43:52;;;;;;;;;2.50;2.50;;;;;10.77;78.20;99743.38;5115244;28;8877;-60
2023/03/21 10:46:20;;;;;;;;;3.50;3.50;;;;;10.81;77.77;99744.81;5115343;28;8843;-58
2023/03/21 10:48:48;;;;;;;;;4.00;4.00;;;;;10.83;77.27;99745.53;5114969;28;8858;-60
2023/03/21 10:51:17;;;;;;;;;3.50;3.00;;;;;10.84;77.72;99733.91;5112746;28;8862;-59
2023/03/21 10:53:46;;;;;;;;;1.50;1.50;;;;;10.86;77.47;99734.59;5113604;28;8963;-61
2023/03/21 10:56:14;;;;;;;;;5.50;4.50;;;;;10.92;77.94;99726.09;5113071;28;8839;-59
2023/03/21 10:58:42;;;;;;;;;5.00;4.75;;;;;10.99;77.40;99724.63;5114273;28;8836;-59
2023/03/21 11:01:13;;;;;;;;;5.50;5.50;;;;;11.06;77.07;99720.44;5112837;28;8962;-59
2023/03/21 11:03:43;;;;;;;;;3.00;3.00;;;;;11.13;77.04;99716.28;5113656;28;8836;-59
2023/03/21 11:06:11;;;;;;;;;3.75;3.75;;;;;11.21;76.73;99720.97;5112796;28;9190;-59
2023/03/21 11:08:39;;;;;;;;;4.00;3.00;;;;;11.28;77.16;99719.44;5114474;28;8856;-58
2023/03/21 11:11:07;;;;;;;;;6.25;4.50;;;;;11.33;76.87;99718.09;5114473;28;8831;-59
2023/03/21 11:13:36;;;;;;;;;0.75;0.75;;;;;11.42;76.38;99711.97;5114155;28;8835;-59
2023/03/21 11:16:04;;;;;;;;;3.00;3.00;;;;;11.50;76.23;99708.63;5115715;28;8824;-58
2023/03/21 11:18:33;;;;;;;;;8.50;7.00;;;;;11.63;76.49;99704.81;5115091;28;8982;-58
2023/03/21 11:21:01;;;;;;;;;6.25;6.25;;;;;11.80;75.45;99706.81;5115986;28;8847;-59
2023/03/21 11:23:29;;;;;;;;;4.00;4.00;;;;;11.93;75.27;99694.09;5114479;28;8832;-60
2023/03/21 11:25:57;;;;;;;;;5.50;5.50;;;;;12.01;75.65;99688.91;5114136;28;8836;-58
2023/03/21 11:28:27;;;;;;;;;7.50;7.25;;;;;12.05;75.22;99692.97;5114942;28;8949;-60
2023/03/21 11:30:55;;;;;;;;;4.00;3.00;;;;;12.07;75.38;99694.53;5113758;28;8916;-59
2023/03/21 11:33:23;;;;;;;;;6.00;4.50;;;;;12.07;75.18;99691.88;5113648;28;8834;-61
2023/03/21 11:35:51;;;;;;;;;3.25;3.00;;;;;12.10;75.31;99682.75;5114259;28;8839;-61
2023/03/21 11:38:20;;;;;;;;;4.00;4.00;;;;;12.11;75.12;99671.94;5114053;28;9578;-61
2023/03/21 11:40:48;;;;;;;;;6.00;5.50;;;;;12.15;74.94;99668.00;5112498;28;8842;-60
2023/03/21 11:43:16;;;;;;;;;5.00;4.00;;;;;12.19;75.40;99671.22;5112690;28;8843;-60
2023/03/21 11:45:44;;;;;;;;;0.50;0.50;;;;;12.21;75.02;99656.75;5112187;28;8838;-59
2023/03/21 11:48:13;;;;;;;;;0.25;0.00;;;;;12.27;75.22;99661.56;5112093;28;8843;-61
2023/03/21 11:50:41;;;;;;;;;8.50;6.75;;;;;12.32;74.56;99653.94;5112109;28;8924;-59
2023/03/21 11:53:09;;;;;;;;;6.00;4.00;;;;;12.37;74.71;99656.19;5112849;28;9509;-60